Tiempo atmosférico en la estación meteorológica de Velilla del Río Carrión, Camporredondo de Alba, Palencia (1575 m.)



Fecha
DESCASC
Temp. máxima en grados centígrados (hora)
DESCASC
Temp. mínima en grados centígrados (hora)
DESCASC
Temp. media en grados centígrados
DESCASC
Racha de viento máxima en m/sg (hora)
DESCASC
Velocidad máxima media en intervalos de 10 minutos(hora)
DESCASC
Precipitaciones diarias en mm
DESCASC
Precipitaciones de 00:00 a 06:00 en mm
DESCASC
Precipitaciones de 06:00 a 12:00 en mm
DESCASC
Precipitaciones de 12:00 a 18:00 en mm
DESCASC
Precipitaciones de 18:00 a 24:00 en mm
DESCASC
15-08-2019 22.9 (15:20) 9.4 (06:10) 16.1 12.22 (13:40) 8.33 (14:10) 0 0 0 0 0
14-08-2019 24.4 (17:30) 10.8 (00:00) 17.6 9.44 (15:20) 5.83 (15:30) 0 0 0 0 0
13-08-2019 21.6 (19:00) 4.8 (00:00) 13.2 9.44 (16:00) 5 (17:00) 0 0 0 0 0
12-08-2019 17.8 (16:40) 4.4 (00:00) 11.1 8.33 (16:30) 4.72 (05:20) 0 0 0 0 0
11-08-2019 17.4 (17:10) 6.2 (00:00) 11.8 9.72 (00:20) 6.67 (00:30) 4.2 2.8 0.4 0.6 0.4
10-08-2019 20.9 (17:30) 8.6 (00:00) 14.8 10.83 (18:30) 6.67 (18:30) 0 0 0 0 0
09-08-2019 18.5 (15:30) 11.8 (00:00) 15.2 23.61 (10:10) 15.83 (10:20) 6 0 6 0 0
08-08-2019 19 (19:20) 12.1 (00:00) 15.6 19.44 (20:40) 12.78 (20:40) 3 1 1.4 0.4 0.2
07-08-2019 19.6 (11:20) 12.1 (00:00) 15.9 14.72 (17:20) 10.28 (17:20) 0 0 0 0 0
06-08-2019 22.5 (15:00) 13 (00:00) 17.8 11.11 (16:10) 7.22 (16:10) 0 0 0 0 0
05-08-2019 26.1 (17:00) 13.3 (00:00) 19.7 11.39 (18:10) 6.67 (12:20) 0 0 0 0 0
04-08-2019 25 (17:40) 13.3 (00:00) 19.2 13.33 (16:00) 8.33 (18:00) 0 0 0 0 0
03-08-2019 26.9 (16:20) 13.8 (00:00) 20.3 11.11 (17:30) 6.67 (17:40) 0 0 0 0 0
02-08-2019 24.5 (17:30) 11.9 (00:00) 18.2 8.33 (18:50) 5.83 (20:40) 0 0 0 0 0
01-08-2019 21.1 (16:10) 10.7 (00:00) 15.9 9.17 (01:00) 7.5 (00:10) 5 0 0 5 0
31-07-2019 21 (15:10) 5.1 (00:00) 13 9.17 (23:50) 7.22 (23:50) 0 0 0 0 0
30-07-2019 18.9 (17:40) 4.9 (00:00) 11.9 8.61 (18:40) 5.28 (04:50) 0 0 0 0 0
29-07-2019 19 (17:30) 9.2 (00:00) 14.1 16.39 (16:00) 10.28 (16:00) 0 0 0 0 0
28-07-2019 19 (18:10) 5.7 (00:00) 12.3 10 (15:20) 6.11 (16:40) 0 0 0 0 0
27-07-2019 14.7 (19:00) 7.7 (00:00) 11.2 8.33 (20:10) 4.72 (20:10) 15.2 6.8 6.2 2.2 0
26-07-2019 17.3 (00:10) 9.3 (00:00) 13.3 15.83 (01:10) 9.17 (00:30) 26 0.2 8.4 17.2 0.2
25-07-2019 26.4 (16:20) 16.9 (00:00) 21.6 15.28 (12:10) 9.44 (17:00) 0 0 0 0 0
24-07-2019 27.6 (17:10) 15.2 (00:00) 21.4 17.78 (16:10) 11.67 (16:00) 0 0 0 0 0
23-07-2019 27.2 (18:00) 15.4 (00:00) 21.3 19.44 (02:50) 9.72 (13:30) 2.4 0 0 0 2.4
22-07-2019 31 (15:50) 13.9 (00:00) 22.4 21.94 (20:30) 13.61 (21:20) 14 0 0 0 14
21-07-2019 28 (18:10) 10.3 (00:00) 19.2 10 (14:40) 7.5 (20:10) 0 0 0 0 0
20-07-2019 26.9 (17:50) 12.8 (00:00) 19.8 -- (--) -- (--) 0 0 0 0 0
19-07-2019 26.1 (18:40) 13.3 (00:00) 19.7 13.89 (16:50) 8.61 (14:30) 0 0 0 0 0

Gráficas

Temp. máximas Temp. mínimas Temp. medias Precipitaciones Rachas de viento máximas Velocidades máximas media en intervalos de 10 minutos

Datos horarios

Fecha y hora oficial Temperatura (ºC) Velocidad del viento (km/h) Dirección del viento Racha (km/h) Dirección de racha Precipitación (mm) Presión (hPa) Tendencia (hPa) Humedad (%)
2019-08-17 23:00:00 19.9 15 Oeste 30 Oeste 0 -- -- 46
2019-08-17 22:00:00 20.5 17 Oeste 30 Oeste 0 -- -- 44
2019-08-17 21:00:00 21.8 15 Oeste 42 Oeste 0 -- -- 42
2019-08-17 20:00:00 23.2 27 Oeste 54 Oeste 0 -- -- 39
2019-08-17 19:00:00 24.8 31 Oeste 51 Oeste 0 -- -- 37
2019-08-17 18:00:00 25.5 30 Oeste 58 Oeste 0 -- -- 36
2019-08-17 17:00:00 25.6 32 Oeste 49 Oeste 0 -- -- 36
2019-08-17 16:00:00 25 30 Oeste 58 Oeste 0 -- -- 37
2019-08-17 15:00:00 24.2 27 Oeste 52 Oeste 0 -- -- 40
2019-08-17 14:00:00 23.9 26 Oeste 40 Sudoeste 0 -- -- 42
2019-08-17 13:00:00 22.9 18 Oeste 29 Oeste 0 -- -- 46
2019-08-17 12:00:00 22.1 16 Oeste 26 Oeste 0 -- -- 46
2019-08-17 11:00:00 20.5 4 Oeste 14 Noroeste 0 -- -- 51
2019-08-17 10:00:00 19.1 5 Noroeste 13 Oeste 0 -- -- 56
2019-08-17 09:00:00 17.6 6 Noroeste 10 Noroeste 0 -- -- 56
2019-08-17 08:00:00 15.8 7 Noroeste 16 Noroeste 0 -- -- 62
2019-08-17 07:00:00 14.3 10 Noroeste 13 Oeste 0 -- -- 62
2019-08-17 06:00:00 14.8 3 Este -- -- 0 -- -- 68
2019-08-17 05:00:00 15.5 4 Este 10 Este 0 -- -- 65
2019-08-17 04:00:00 15.5 2 Sudeste 10 Este 0 -- -- 64
2019-08-17 03:00:00 15.8 9 Este 14 Este 0 -- -- 64
2019-08-17 02:00:00 15.8 9 Este 12 Este 0 -- -- 68
2019-08-17 01:00:00 16.8 5 Sudeste 8 Nordeste 0 -- -- 69
2019-08-17 00:00:00 17.2 7 Este 9 Nordeste 0 -- -- 65
2019-08-16 23:00:00 19.3 0 Calma 14 Oeste 0 -- -- 55
2019-08-16 22:00:00 20.8 12 Oeste 23 Sudoeste 0 -- -- 40
2019-08-16 21:00:00 21.4 16 Sudoeste 26 Oeste 0 -- -- 39
2019-08-16 20:00:00 23.2 20 Oeste 31 Oeste 0 -- -- 35
2019-08-16 19:00:00 25.8 16 Oeste 32 Oeste 0 -- -- 34
2019-08-16 18:00:00 26.2 15 Oeste 35 Oeste 0 -- -- 33
2019-08-16 17:00:00 26 19 Oeste 35 Oeste 0 -- -- 35
2019-08-16 16:00:00 24.8 23 Oeste 40 Noroeste 0 -- -- 35
2019-08-16 15:00:00 24.2 18 Oeste 39 Oeste 0 -- -- 44
2019-08-16 14:00:00 22.8 20 Oeste 35 Oeste 0 -- -- 46
2019-08-16 13:00:00 22.3 19 Oeste 29 Oeste 0 -- -- 49
2019-08-16 12:00:00 20.9 15 Oeste 27 Oeste 0 -- -- 54
2019-08-16 11:00:00 19.6 11 Oeste 18 Oeste 0 -- -- 58
2019-08-16 10:00:00 18.2 9 Noroeste 14 Noroeste 0 -- -- 59
2019-08-16 09:00:00 17.2 4 Sudoeste 11 Noroeste 0 -- -- 58
2019-08-16 08:00:00 15.6 11 Noroeste 13 Oeste 0 -- -- 62
2019-08-16 07:00:00 14.8 11 Noroeste 13 Oeste 0 -- -- 65
2019-08-16 06:00:00 15 10 Oeste 13 Noroeste 0 -- -- 63
2019-08-16 05:00:00 15.4 9 Noroeste 13 Oeste 0 -- -- 61
2019-08-16 04:00:00 14.3 8 Noroeste 10 Norte 0 -- -- 68
2019-08-16 03:00:00 14.6 5 Noroeste 9 Norte 0 -- -- 71
2019-08-16 02:00:00 13.9 6 Noroeste 12 Noroeste 0 -- -- 77
2019-08-16 01:00:00 14.2 5 Oeste 7 Noroeste 0 -- -- 84
2019-08-16 00:00:00 14 4 Nordeste 8 Nordeste 0 -- -- 86
2019-08-15 23:00:00 13.8 3 Nordeste 8 Este 0 -- -- 86
2019-08-15 22:00:00 14.4 7 Este 13 Este 0 -- -- 84
2019-08-15 21:00:00 15.7 8 Este 19 Este 0 -- -- 79
2019-08-15 20:00:00 17 14 Este 25 Este 0 -- -- 74
2019-08-15 19:00:00 17.5 17 Este 23 Este 0 -- -- 72
2019-08-15 18:00:00 19.7 8 Sudoeste 23 Sudoeste 0 -- -- 59
2019-08-15 17:00:00 20.9 8 Sudoeste 23 Sudoeste 0 -- -- 56
2019-08-15 16:00:00 22.5 8 Noroeste 26 Noroeste 0 -- -- 50
2019-08-15 15:00:00 22.1 16 Noroeste 43 Oeste 0 -- -- 45
2019-08-15 14:00:00 20.6 29 Oeste 44 Oeste 0 -- -- 47
2019-08-15 13:00:00 19.7 24 Oeste 35 Oeste 0 -- -- 50
2019-08-15 12:00:00 18.8 20 Oeste 35 Oeste 0 -- -- 49
2019-08-15 11:00:00 17.1 17 Oeste 23 Oeste 0 -- -- 44
2019-08-15 10:00:00 14.7 11 Oeste 17 Sudoeste 0 -- -- 45
2019-08-15 09:00:00 13.3 14 Noroeste 21 Noroeste 0 -- -- 47
2019-08-15 08:00:00 12.4 14 Noroeste 21 Noroeste 0 -- -- 56
2019-08-15 07:00:00 10.5 17 Noroeste 21 Noroeste 0 -- -- 73
2019-08-15 06:00:00 9.8 12 Oeste 21 Noroeste 0 -- -- 90
2019-08-15 05:00:00 11.2 18 Noroeste 25 Noroeste 0 -- -- 83
2019-08-15 04:00:00 11.6 9 Oeste 14 Noroeste 0 -- -- 91
2019-08-15 03:00:00 12.5 9 Oeste 18 Oeste 0 -- -- 88
2019-08-15 02:00:00 13.1 14 Oeste 24 Oeste 0 -- -- 86
2019-08-15 01:00:00 13.5 14 Oeste 21 Oeste 0 -- -- 86
2019-08-15 00:00:00 14.3 14 Oeste 20 Oeste 0 -- -- 84
2019-08-14 23:00:00 14.9 14 Oeste 24 Noroeste 0 -- -- 83
2019-08-14 22:00:00 16.6 15 Noroeste 19 Noroeste 0 -- -- 75
2019-08-14 21:00:00 18.2 12 Oeste 24 Oeste 0 -- -- 69
2019-08-14 20:00:00 21.8 9 Noroeste 22 Noroeste 0 -- -- 57
2019-08-14 19:00:00 23.9 15 Oeste 28 Oeste 0 -- -- 49
2019-08-14 18:00:00 23.8 10 Oeste 29 Noroeste 0 -- -- 50
2019-08-14 17:00:00 23.9 14 Noroeste 31 Oeste 0 -- -- 49
2019-08-14 16:00:00 21.2 18 Oeste 34 Oeste 0 -- -- 55
2019-08-14 15:00:00 20.9 10 Oeste 26 Oeste 0 -- -- 59
2019-08-14 14:00:00 22.4 14 Oeste 28 Oeste 0 -- -- 52
2019-08-14 13:00:00 20.7 15 Oeste 32 Oeste 0 -- -- 53
2019-08-14 12:00:00 19.1 18 Oeste 31 Oeste 0 -- -- 54
2019-08-14 11:00:00 17.2 13 Oeste 19 Oeste 0 -- -- 53
2019-08-14 10:00:00 16 5 Oeste 14 Oeste 0 -- -- 49
2019-08-14 09:00:00 14.3 8 Sudoeste 14 Sudoeste 0 -- -- 51
2019-08-14 08:00:00 12.8 8 Oeste 14 Oeste 0 -- -- 59
2019-08-14 07:00:00 11.2 11 Oeste 18 Oeste 0 -- -- 66
2019-08-14 06:00:00 11.9 15 Noroeste 17 Noroeste 0 -- -- 65
2019-08-14 05:00:00 11.3 10 Oeste 12 Oeste 0 -- -- 72
2019-08-14 04:00:00 11.8 3 Oeste 6 Sudoeste 0 -- -- 71
2019-08-14 03:00:00 11.5 5 Oeste 6 Norte 0 -- -- 76
2019-08-14 02:00:00 11.3 4 Noroeste 8 Noroeste 0 -- -- 75
2019-08-14 01:00:00 10.9 0 Calma 6 Este 0 -- -- 81
2019-08-14 00:00:00 11.1 6 Este 12 Este 0 -- -- 80
2019-08-13 23:00:00 10.8 10 Este 18 Este 0 -- -- 83
2019-08-13 22:00:00 11.6 10 Este 13 Este 0 -- -- 81
2019-08-13 21:00:00 13.7 7 Este 19 Nordeste 0 -- -- 68
2019-08-13 20:00:00 15.9 9 Nordeste 18 Sudoeste 0 -- -- 60
2019-08-13 19:00:00 21.6 6 Oeste 23 Oeste 0 -- -- 40
2019-08-13 18:00:00 20.5 11 Sudoeste 26 Sudoeste 0 -- -- 44
2019-08-13 17:00:00 19.9 18 Sudoeste 28 Sudoeste 0 -- -- 46
2019-08-13 16:00:00 19.5 18 Oeste 34 Oeste 0 -- -- 50
2019-08-13 15:00:00 16.4 5 Sudoeste 18 Sudoeste 0 -- -- 60
2019-08-13 14:00:00 17.1 5 Sur 21 Este 0 -- -- 53
2019-08-13 13:00:00 14.8 10 Este 19 Este 0 -- -- 61
2019-08-13 12:00:00 14.5 5 Sudeste 15 Este 0 -- -- 61
2019-08-13 11:00:00 13.6 2 Oeste 8 Noroeste 0 -- -- 64
2019-08-13 10:00:00 12.4 0 Calma 7 Este 0 -- -- 68
2019-08-13 09:00:00 9.4 3 Norte 8 Noroeste 0 -- -- 72
2019-08-13 08:00:00 5.9 0 Calma 5 Oeste 0 -- -- 92
2019-08-13 07:00:00 5.3 0 Calma 5 Nordeste 0 -- -- 93
2019-08-13 06:00:00 5.1 4 Este 7 Este 0 -- -- 94
2019-08-13 05:00:00 4.9 7 Este 9 Este 0 -- -- 95
2019-08-13 04:00:00 4.9 6 Este 9 Nordeste 0 -- -- 95
2019-08-13 03:00:00 5.4 9 Este 11 Este 0 -- -- 95
2019-08-13 02:00:00 6.4 2 Este 4 Norte 0 -- -- 93
2019-08-13 01:00:00 7 2 Oeste 5 Noroeste 0 -- -- 91
2019-08-13 00:00:00 7.3 0 Calma 11 Este 0 -- -- 88
2019-08-12 23:00:00 7.9 10 Nordeste 13 Este 0 -- -- 84
2019-08-12 22:00:00 8.7 7 Nordeste 14 Oeste 0 -- -- 85
2019-08-12 21:00:00 9.8 4 Noroeste 17 Oeste 0 -- -- 70
2019-08-12 20:00:00 9.9 12 Oeste 24 Oeste 0 -- -- 69
2019-08-12 19:00:00 12.2 15 Oeste 28 Oeste 0 -- -- 60
2019-08-12 18:00:00 15.5 15 Oeste 28 Oeste 0 -- -- 53
2019-08-12 17:00:00 16.8 12 Oeste 30 Sudeste 0 -- -- 50
2019-08-12 16:00:00 15.9 8 Nordeste 20 Nordeste 0 -- -- 58
2019-08-12 15:00:00 16.1 6 Sur 18 Sudoeste 0 -- -- 52
2019-08-12 14:00:00 14.2 6 Sudoeste 17 Sudoeste 0 -- -- 51
2019-08-12 13:00:00 14.6 10 Oeste 22 Oeste 0 -- -- 53
2019-08-12 12:00:00 11.2 7 Oeste 16 Oeste 0 -- -- 55
2019-08-12 11:00:00 10.4 8 Oeste 17 Oeste 0 -- -- 56
2019-08-12 10:00:00 8.1 9 Oeste 21 Noroeste 0 -- -- 76
2019-08-12 09:00:00 6.3 13 Noroeste 19 Oeste 0 -- -- 75
2019-08-12 08:00:00 4.7 13 Oeste 19 Noroeste 0 -- -- 83
2019-08-12 07:00:00 4.8 16 Noroeste 24 Noroeste 0 -- -- 83
2019-08-12 06:00:00 4.9 14 Noroeste 21 Noroeste 0 -- -- 84
2019-08-12 05:00:00 4.7 16 Noroeste 19 Oeste 0 -- -- 88
2019-08-12 04:00:00 4.7 10 Oeste 18 Oeste 0 -- -- 88
2019-08-12 03:00:00 5.4 15 Oeste 19 Noroeste 0 -- -- 83
2019-08-12 02:00:00 5.7 8 Oeste 17 Noroeste 0 -- -- 80
2019-08-12 01:00:00 5.9 12 Oeste 16 Oeste 0 -- -- 80
2019-08-12 00:00:00 6.3 11 Oeste 18 Oeste 0 -- -- 83
2019-08-11 23:00:00 6.5 12 Oeste 24 Nordeste 0 -- -- 93
2019-08-11 22:00:00 7.1 14 Oeste 32 Oeste 0.4 -- -- 91
2019-08-11 21:00:00 9 4 Sudeste 22 Sudeste 0 -- -- 89
2019-08-11 20:00:00 10.2 16 Sudeste 26 Este 0 -- -- 87
2019-08-11 19:00:00 12.5 17 Este 32 Este 0 -- -- 80
2019-08-11 18:00:00 12.5 18 Sudeste 31 Este 0 -- -- 78
2019-08-11 17:00:00 16.8 13 Oeste 32 Oeste 0 -- -- 55
2019-08-11 16:00:00 16.8 11 Oeste 29 Oeste 0 -- -- 63
2019-08-11 15:00:00 13 16 Norte 28 Norte 0 -- -- 75
2019-08-11 14:00:00 11 6 Este 17 Oeste 0.4 -- -- 83
2019-08-11 13:00:00 10.1 10 Sudoeste 18 Sudoeste 0.2 -- -- 90
2019-08-11 12:00:00 11.5 8 Oeste 19 Oeste 0 -- -- 82
2019-08-11 11:00:00 10.9 10 Noroeste 17 Oeste 0 -- -- 87
2019-08-11 10:00:00 12.5 0 Calma 6 Oeste 0 -- -- 77
2019-08-11 09:00:00 11.8 2 Nordeste 6 Este 0 -- -- 86
2019-08-11 08:00:00 8 0 Calma 6 Este 0 -- -- 98
2019-08-11 07:00:00 7.7 5 Este 9 Este 0.4 -- -- 98
2019-08-11 06:00:00 7.9 5 Sudeste 11 Oeste 1.4 -- -- 96
2019-08-11 05:00:00 8 5 Noroeste 14 Sudeste 1.4 -- -- 96
2019-08-11 04:00:00 8.3 5 Oeste 14 Oeste 0 -- -- 93
2019-08-11 03:00:00 8.1 7 Este 12 Este 0 -- -- 92
2019-08-11 02:00:00 8.3 9 Este 23 Sudeste 0 -- -- 93
2019-08-11 01:00:00 8.6 20 Este 35 Este 0 -- -- 89
2019-08-11 00:00:00 8.8 21 Este 34 Sudeste 0 -- -- 90
2019-08-10 23:00:00 9.1 16 Nordeste 20 Este 0 -- -- 93
2019-08-10 22:00:00 10.3 9 Nordeste 21 Nordeste 0 -- -- 87
2019-08-10 21:00:00 14.1 2 Norte 29 Oeste 0 -- -- 64
2019-08-10 20:00:00 16.2 21 Oeste 33 Oeste 0 -- -- 38
2019-08-10 19:00:00 19 20 Oeste 39 Oeste 0 -- -- 35
2019-08-10 18:00:00 20.8 17 Sudoeste 36 Oeste 0 -- -- 33
2019-08-10 17:00:00 20.4 22 Oeste 36 Oeste 0 -- -- 35
2019-08-10 16:00:00 20.7 15 Oeste 39 Oeste 0 -- -- 38
2019-08-10 15:00:00 19.3 16 Sudoeste 34 Oeste 0 -- -- 37
2019-08-10 14:00:00 18.1 15 Sudoeste 30 Oeste 0 -- -- 40
2019-08-10 13:00:00 17.4 13 Sudoeste 30 Sudoeste 0 -- -- 46
2019-08-10 12:00:00 16.5 5 Este 13 Sudeste 0 -- -- 53
2019-08-10 11:00:00 15.9 6 Noroeste 10 Norte 0 -- -- 54
2019-08-10 10:00:00 14.9 0 Calma 6 Sudoeste 0 -- -- 46
2019-08-10 09:00:00 13.3 0 Calma 10 Noroeste 0 -- -- 57
2019-08-10 08:00:00 11.2 5 Norte 14 Oeste 0 -- -- 66
2019-08-10 07:00:00 10.2 7 Sudoeste 10 Sudoeste 0 -- -- 70
2019-08-10 06:00:00 10.5 6 Oeste 12 Oeste 0 -- -- 70
2019-08-10 05:00:00 10.7 11 Oeste 17 Noroeste 0 -- -- 69
2019-08-10 04:00:00 10.6 6 Sudoeste 10 Sudoeste 0 -- -- 71
2019-08-10 03:00:00 11.3 4 Oeste 12 Oeste 0 -- -- 69
2019-08-10 02:00:00 11.3 6 Oeste 15 Sudoeste 0 -- -- 71
2019-08-10 01:00:00 11.2 7 Sudoeste 15 Oeste 0 -- -- 73
2019-08-10 00:00:00 11.8 13 Noroeste 17 Noroeste 0 -- -- 70
2019-08-09 23:00:00 12.3 13 Oeste 16 Oeste 0 -- -- 70
2019-08-09 22:00:00 12.8 12 Oeste 22 Oeste 0 -- -- 70
2019-08-09 21:00:00 13.4 17 Oeste 24 Oeste 0 -- -- 68
2019-08-09 20:00:00 14.6 14 Oeste 35 Oeste 0 -- -- 65
2019-08-09 19:00:00 15.1 24 Oeste 52 Oeste 0 -- -- 60
2019-08-09 18:00:00 16.3 35 Oeste 60 Oeste 0 -- -- 62
2019-08-09 17:00:00 18.5 40 Oeste 68 Oeste 0 -- -- 56
2019-08-09 16:00:00 18 42 Oeste 64 Oeste 0 -- -- 49
2019-08-09 15:00:00 17.7 41 Oeste 64 Oeste 0 -- -- 48
2019-08-09 14:00:00 16.8 32 Oeste 54 Oeste 0 -- -- 60
2019-08-09 13:00:00 15.3 37 Oeste 70 Oeste 0 -- -- 70
2019-08-09 12:00:00 14.1 40 Oeste 55 Noroeste 0 -- -- 82
2019-08-09 11:00:00 13.2 31 Oeste 85 Oeste 1 -- -- 98
2019-08-09 10:00:00 13.8 49 Oeste 85 Oeste 2 -- -- 98
2019-08-09 09:00:00 14.3 41 Oeste 69 Oeste 0.6 -- -- 98
2019-08-09 08:00:00 14.1 45 Oeste 68 Oeste 1.6 -- -- 98
2019-08-09 07:00:00 14.1 38 Oeste 68 Oeste 0.8 -- -- 97
2019-08-09 06:00:00 14.4 50 Oeste 79 Oeste 0 -- -- 95
2019-08-09 05:00:00 14.8 37 Oeste 65 Oeste 0 -- -- 92
2019-08-09 04:00:00 15.2 42 Oeste 70 Oeste 0 -- -- 87
2019-08-09 03:00:00 15.2 44 Oeste 70 Oeste 0 -- -- 87
2019-08-09 02:00:00 15.5 40 Oeste 71 Oeste 0 -- -- 86
2019-08-09 01:00:00 15.9 45 Oeste 74 Oeste 0 -- -- 84
2019-08-09 00:00:00 16.2 39 Oeste 60 Oeste 0 -- -- 81
2019-08-08 23:00:00 16.3 40 Oeste 60 Oeste 0 -- -- 83
2019-08-08 22:00:00 17.1 41 Oeste 65 Oeste 0 -- -- 83
2019-08-08 21:00:00 17.5 33 Oeste 70 Sudoeste 0 -- -- 80
2019-08-08 20:00:00 18.2 38 Oeste 63 Oeste 0 -- -- 79
2019-08-08 19:00:00 18.9 36 Oeste 67 Oeste 0.2 -- -- 81
2019-08-08 18:00:00 16.7 29 Oeste 52 Oeste 0.2 -- -- 91
2019-08-08 17:00:00 17.1 35 Oeste 53 Oeste 0 -- -- 93
2019-08-08 16:00:00 16.1 26 Oeste 51 Oeste 0.2 -- -- 97
2019-08-08 15:00:00 15.7 33 Oeste 53 Oeste 0 -- -- 96
2019-08-08 14:00:00 15.1 10 Oeste 23 Oeste 0 -- -- 98
2019-08-08 13:00:00 14.1 12 Oeste 26 Oeste 0 -- -- 98
2019-08-08 12:00:00 13.9 20 Oeste 32 Oeste 0 -- -- 98
2019-08-08 11:00:00 13.3 21 Oeste 33 Oeste 0 -- -- 99
2019-08-08 10:00:00 13 19 Oeste 39 Oeste 0.2 -- -- 98
2019-08-08 09:00:00 12.9 19 Oeste 31 Oeste 0.4 -- -- 98
2019-08-08 08:00:00 12.8 21 Oeste 35 Oeste 0.6 -- -- 98
2019-08-08 07:00:00 12.7 19 Oeste 36 Oeste 0.2 -- -- 98
2019-08-08 06:00:00 12.6 18 Oeste 30 Oeste 0.4 -- -- 98
2019-08-08 05:00:00 12.5 18 Oeste 38 Oeste 0.4 -- -- 98
2019-08-08 04:00:00 12.5 19 Oeste 47 Oeste 0.2 -- -- 97
2019-08-08 03:00:00 12.4 22 Oeste 40 Oeste 0 -- -- 97
2019-08-08 02:00:00 12.3 18 Oeste 26 Oeste 0 -- -- 97
2019-08-08 01:00:00 12.1 12 Oeste 19 Oeste 0 -- -- 97
2019-08-08 00:00:00 12.4 8 Oeste 22 Noroeste 0 -- -- 96
2019-08-07 23:00:00 12.8 18 Oeste 32 Oeste 0 -- -- 94
2019-08-07 22:00:00 13.3 17 Oeste 28 Sudoeste 0 -- -- 89
2019-08-07 21:00:00 13.8 16 Oeste 32 Oeste 0 -- -- 84
2019-08-07 20:00:00 14.3 19 Oeste 36 Oeste 0 -- -- 80
2019-08-07 19:00:00 14.9 16 Oeste 34 Oeste 0 -- -- 75
2019-08-07 18:00:00 15.2 21 Oeste 53 Sudoeste 0 -- -- 74
2019-08-07 17:00:00 17.4 26 Oeste 43 Oeste 0 -- -- 62
2019-08-07 16:00:00 17.9 17 Oeste 40 Oeste 0 -- -- 64
2019-08-07 15:00:00 18 24 Oeste 36 Oeste 0 -- -- 60
2019-08-07 14:00:00 18.5 10 Oeste 29 Oeste 0 -- -- 58
2019-08-07 13:00:00 18.3 17 Oeste 28 Sudoeste 0 -- -- 58
2019-08-07 12:00:00 17.3 9 Oeste 17 Oeste 0 -- -- 58
2019-08-07 11:00:00 17.7 5 Sudoeste 9 Noroeste 0 -- -- 60
2019-08-07 10:00:00 16.8 4 Oeste 7 Oeste 0 -- -- 60
2019-08-07 09:00:00 15.5 3 Oeste 5 Oeste 0 -- -- 67
2019-08-07 08:00:00 14 2 Norte 6 Noroeste 0 -- -- 80
2019-08-07 07:00:00 12.2 5 Noroeste 10 Oeste 0 -- -- 91
2019-08-07 06:00:00 12.4 6 Oeste 11 Noroeste 0 -- -- 94
2019-08-07 05:00:00 13.2 4 Oeste 6 Oeste 0 -- -- 90
2019-08-07 04:00:00 13.4 4 Oeste 17 Oeste 0 -- -- 88
2019-08-07 03:00:00 12.8 8 Sudoeste 13 Este 0 -- -- 94
2019-08-07 02:00:00 12.5 10 Este 15 Este 0 -- -- 96
2019-08-07 01:00:00 12.6 11 Este 21 Este 0 -- -- 95
2019-08-07 00:00:00 13.1 9 Este 17 Este 0 -- -- 94
2019-08-06 23:00:00 14.6 6 Oeste 14 Noroeste 0 -- -- 88
2019-08-06 22:00:00 15.2 10 Nordeste 17 Nordeste 0 -- -- 83
2019-08-06 21:00:00 17.5 12 Noroeste 19 Noroeste 0 -- -- 73
2019-08-06 20:00:00 19.4 13 Oeste 26 Oeste 0 -- -- 51
2019-08-06 19:00:00 21.1 9 Sudoeste 27 Oeste 0 -- -- 46
2019-08-06 18:00:00 20.8 16 Oeste 34 Oeste 0 -- -- 42
2019-08-06 17:00:00 21.2 21 Oeste 40 Oeste 0 -- -- 46
2019-08-06 16:00:00 21.8 21 Oeste 31 Oeste 0 -- -- 50
2019-08-06 15:00:00 22.5 15 Oeste 29 Noroeste 0 -- -- 46
2019-08-06 14:00:00 21.8 21 Oeste 32 Oeste 0 -- -- 45
2019-08-06 13:00:00 21.4 15 Oeste 26 Oeste 0 -- -- 49
2019-08-06 12:00:00 20.7 11 Oeste 19 Oeste 0 -- -- 55
2019-08-06 11:00:00 17.7 9 Oeste 15 Noroeste 0 -- -- 63
2019-08-06 10:00:00 18.3 5 Oeste 10 Noroeste 0 -- -- 62
2019-08-06 09:00:00 15.3 8 Oeste 11 Noroeste 0 -- -- 73
2019-08-06 08:00:00 15 6 Noroeste 7 Noroeste 0 -- -- 78
2019-08-06 07:00:00 15.3 5 Oeste 10 Noroeste 0 -- -- 74
2019-08-06 06:00:00 13.8 3 Oeste 6 Oeste 0 -- -- 86
2019-08-06 05:00:00 14.2 0 Calma 5 Este 0 -- -- 83
2019-08-06 04:00:00 14.8 4 Este 9 Este 0 -- -- 81
2019-08-06 03:00:00 13.9 9 Este 12 Este 0 -- -- 89
2019-08-06 02:00:00 13.9 9 Este 11 Este 0 -- -- 89
2019-08-06 01:00:00 14.8 6 Este 10 Este 0 -- -- 87
2019-08-06 00:00:00 14.3 8 Este 12 Este 0 -- -- 89
2019-08-05 23:00:00 15.4 10 Este 22 Este 0 -- -- 86
2019-08-05 22:00:00 17.5 6 Este 11 Nordeste 0 -- -- 76
2019-08-05 21:00:00 21.1 2 Este 26 Oeste 0 -- -- 52
2019-08-05 20:00:00 23.5 16 Oeste 32 Oeste 0 -- -- 35
2019-08-05 19:00:00 25.3 21 Oeste 41 Oeste 0 -- -- 34
2019-08-05 18:00:00 25.5 22 Oeste 34 Noroeste 0 -- -- 34
2019-08-05 17:00:00 26.1 15 Oeste 30 Oeste 0 -- -- 36
2019-08-05 16:00:00 25 18 Oeste 32 Oeste 0 -- -- 36
2019-08-05 15:00:00 23.9 17 Oeste 37 Oeste 0 -- -- 43
2019-08-05 14:00:00 22.5 20 Oeste 39 Oeste 0 -- -- 48
2019-08-05 13:00:00 21 24 Oeste 38 Oeste 0 -- -- 52
2019-08-05 12:00:00 20.6 21 Oeste 31 Oeste 0 -- -- 50
2019-08-05 11:00:00 20.1 7 Oeste 13 Oeste 0 -- -- 58
2019-08-05 10:00:00 19.4 5 Noroeste 9 Noroeste 0 -- -- 57
2019-08-05 09:00:00 21 0 Calma 4 Este 0 -- -- 54
2019-08-05 08:00:00 16.2 0 Calma 6 Sur 0 -- -- 64
2019-08-05 07:00:00 15 5 Sudeste 9 Sudeste 0 -- -- 68
2019-08-05 06:00:00 15 2 Este 11 Este 0 -- -- 66
2019-08-05 05:00:00 14.8 10 Este 13 Este 0 -- -- 68
2019-08-05 04:00:00 13.8 11 Este 12 Este 0 -- -- 78
2019-08-05 03:00:00 14.8 5 Este 6 Este 0 -- -- 75
2019-08-05 02:00:00 14.5 0 Calma 8 Este 0 -- -- 79
2019-08-05 01:00:00 13.8 6 Este 14 Este 0 -- -- 85
2019-08-05 00:00:00 13.3 8 Este 9 Este 0 -- -- 88
2019-08-04 23:00:00 14 5 Noroeste 14 Nordeste 0 -- -- 87
2019-08-04 22:00:00 16.4 5 Nordeste 12 Nordeste 0 -- -- 74
2019-08-04 21:00:00 21 7 Norte 27 Oeste 0 -- -- 52
2019-08-04 20:00:00 23.4 19 Oeste 41 Oeste 0 -- -- 38
2019-08-04 19:00:00 24.8 18 Oeste 48 Oeste 0 -- -- 38
2019-08-04 18:00:00 24.7 30 Oeste 44 Oeste 0 -- -- 32
2019-08-04 17:00:00 24.2 29 Oeste 46 Oeste 0 -- -- 35
2019-08-04 16:00:00 23.4 26 Oeste 48 Oeste 0 -- -- 43
2019-08-04 15:00:00 23.8 27 Oeste 43 Oeste 0 -- -- 41
2019-08-04 14:00:00 23.7 19 Oeste 36 Oeste 0 -- -- 48
2019-08-04 13:00:00 21.8 18 Oeste 31 Oeste 0 -- -- 53
2019-08-04 12:00:00 21.6 12 Oeste 19 Oeste 0 -- -- 54
2019-08-04 11:00:00 21.1 3 Oeste 10 Oeste 0 -- -- 60
2019-08-04 10:00:00 18.6 6 Noroeste 16 Noroeste 0 -- -- 62
2019-08-04 09:00:00 19.1 5 Noroeste 10 Noroeste 0 -- -- 56
2019-08-04 08:00:00 15.9 6 Este 10 Este 0 -- -- 64
2019-08-04 07:00:00 14.2 10 Este 12 Este 0 -- -- 69
2019-08-04 06:00:00 15.4 8 Este 9 Este 0 -- -- 66
2019-08-04 05:00:00 15.5 5 Este 7 Este 0 -- -- 66
2019-08-04 04:00:00 15.7 4 Este 5 Este 0 -- -- 66
2019-08-04 03:00:00 15.4 2 Este 4 Nordeste 0 -- -- 67
2019-08-04 02:00:00 15.7 3 Este 5 Este 0 -- -- 66
2019-08-04 01:00:00 16 5 Este 15 Este 0 -- -- 66
2019-08-04 00:00:00 15.6 12 Este 28 Este 0 -- -- 68
2019-08-03 23:00:00 16.9 15 Este 30 Este 0 -- -- 66
2019-08-03 22:00:00 18.3 14 Este 22 Sudeste 0 -- -- 66
2019-08-03 21:00:00 20.6 3 Sudeste 24 Este 0 -- -- 56
2019-08-03 20:00:00 23.8 8 Nordeste 32 Oeste 0 -- -- 46
2019-08-03 19:00:00 26 16 Oeste 35 Oeste 0 -- -- 32
2019-08-03 18:00:00 26.2 18 Oeste 40 Oeste 0 -- -- 31
2019-08-03 17:00:00 25.4 21 Oeste 40 Oeste 0 -- -- 35
2019-08-03 16:00:00 26.1 15 Oeste 31 Oeste 0 -- -- 34
2019-08-03 15:00:00 23.3 13 Oeste 29 Sudoeste 0 -- -- 41
2019-08-03 14:00:00 24.5 9 Oeste 32 Sudoeste 0 -- -- 39
2019-08-03 13:00:00 23.5 15 Sudoeste 24 Sudoeste 0 -- -- 39
2019-08-03 12:00:00 23.4 6 Oeste 16 Sur 0 -- -- 47
2019-08-03 11:00:00 22.7 5 Sudoeste 13 Sudoeste 0 -- -- 45
2019-08-03 10:00:00 19.9 5 Este 9 Este 0 -- -- 48
2019-08-03 09:00:00 18.2 8 Nordeste 8 Nordeste 0 -- -- 51
2019-08-03 08:00:00 16.3 4 Este 6 Sudeste 0 -- -- 55
2019-08-03 07:00:00 14.7 5 Este 13 Este 0 -- -- 60
2019-08-03 06:00:00 14.7 12 Este 17 Este 0 -- -- 57
2019-08-03 05:00:00 13.8 17 Este 21 Este 0 -- -- 64
2019-08-03 04:00:00 14.1 13 Este 14 Este 0 -- -- 67
2019-08-03 03:00:00 14.5 13 Este 14 Este 0 -- -- 66
2019-08-03 02:00:00 15.2 6 Este 12 Este 0 -- -- 63
2019-08-03 01:00:00 15.1 12 Este 17 Este 0 -- -- 64
2019-08-03 00:00:00 15.2 15 Este 19 Este 0 -- -- 64
2019-08-02 23:00:00 16 12 Este 22 Este 0 -- -- 63
2019-08-02 22:00:00 16.8 17 Este 23 Este 0 -- -- 64
2019-08-02 21:00:00 18.3 18 Este 27 Este 0 -- -- 62
2019-08-02 20:00:00 20.2 15 Este 27 Este 0 -- -- 58
2019-08-02 19:00:00 22.9 9 Sudeste 30 Sudeste 0 -- -- 49
2019-08-02 18:00:00 22.6 8 Sudeste 22 Nordeste 0 -- -- 44
2019-08-02 17:00:00 22.5 3 Sudeste 16 Sudoeste 0 -- -- 43
2019-08-02 16:00:00 23.4 5 Oeste 15 Sudoeste 0 -- -- 43
2019-08-02 15:00:00 22.8 6 Oeste 27 Oeste 0 -- -- 43
2019-08-02 14:00:00 20.9 10 Oeste 19 Oeste 0 -- -- 50
2019-08-02 13:00:00 21.4 8 Oeste 18 Oeste 0 -- -- 47
2019-08-02 12:00:00 21.7 6 Sudoeste 12 Sudoeste 0 -- -- 50
2019-08-02 11:00:00 21.2 4 Oeste 7 Noroeste 0 -- -- 52
2019-08-02 10:00:00 20.4 2 Noroeste 6 Noroeste 0 -- -- 42
2019-08-02 09:00:00 17.2 4 Oeste 6 Noroeste 0 -- -- 50
2019-08-02 08:00:00 16.2 0 Calma 2 Este 0 -- -- 56
2019-08-02 07:00:00 14 0 Calma 2 Este 0 -- -- 62
2019-08-02 06:00:00 14.2 0 Calma 5 Este 0 -- -- 64
2019-08-02 05:00:00 13.7 6 Este 8 Este 0 -- -- 67
2019-08-02 04:00:00 13.7 4 Este 5 Este 0 -- -- 70
2019-08-02 03:00:00 12.6 2 Nordeste 5 Este 0 -- -- 81
2019-08-02 02:00:00 11.9 0 Calma 2 Oeste 0 -- -- 86
2019-08-02 01:00:00 12.1 0 Calma 5 Nordeste 0 -- -- 92
2019-08-02 00:00:00 12 4 Nordeste 6 Nordeste 0 -- -- 92
2019-08-01 23:00:00 13.5 7 Este 10 Nordeste 0 -- -- 85
2019-08-01 22:00:00 14.4 9 Nordeste 10 Nordeste 0 -- -- 81
2019-08-01 21:00:00 16.2 6 Este 17 Este 0 -- -- 70
2019-08-01 20:00:00 17.1 10 Este 20 Este 0 -- -- 70
2019-08-01 19:00:00 16.7 13 Este 23 Este 0 -- -- 71
2019-08-01 18:00:00 16 6 Este 28 Este 5 -- -- 80
2019-08-01 17:00:00 15.5 22 Este 30 Este 0 -- -- 85
2019-08-01 16:00:00 21 8 Sudeste 21 Este 0 -- -- 65
2019-08-01 15:00:00 19.6 6 Sudeste 22 Este 0 -- -- 72
2019-08-01 14:00:00 19.4 3 Sudoeste 18 Este 0 -- -- 65
2019-08-01 13:00:00 17.9 14 Este 19 Este 0 -- -- 72
2019-08-01 12:00:00 19.3 10 Este 19 Este 0 -- -- 68
2019-08-01 11:00:00 16.1 15 Este 22 Este 0 -- -- 74
2019-08-01 10:00:00 15 15 Este 21 Este 0 -- -- 75
2019-08-01 09:00:00 13.3 13 Este 17 Este 0 -- -- 73
2019-08-01 08:00:00 11.6 13 Este 21 Este 0 -- -- 75
2019-08-01 07:00:00 11.2 19 Este 21 Este 0 -- -- 77
2019-08-01 06:00:00 11.2 18 Este 20 Este 0 -- -- 75
2019-08-01 05:00:00 12.9 12 Este 19 Este 0 -- -- 71
2019-08-01 04:00:00 13 19 Este 26 Este 0 -- -- 69
2019-08-01 03:00:00 12 21 Este 24 Este 0 -- -- 71
2019-08-01 02:00:00 13.1 19 Este 27 Este 0 -- -- 66
2019-08-01 01:00:00 12.6 25 Este 33 Este 0 -- -- 72
2019-08-01 00:00:00 11.7 26 Este 33 Este 0 -- -- 80
2019-07-31 23:00:00 13.2 16 Este 26 Este 0 -- -- 75
2019-07-31 22:00:00 14.2 16 Este 23 Este 0 -- -- 71
2019-07-31 21:00:00 14.4 17 Este 23 Este 0 -- -- 69
2019-07-31 20:00:00 15.1 16 Este 21 Este 0 -- -- 65
2019-07-31 19:00:00 17.9 4 Sudoeste 14 Sudoeste 0 -- -- 51
2019-07-31 18:00:00 19.8 3 Sur 15 Este 0 -- -- 48
2019-07-31 17:00:00 18.1 11 Este 18 Este 0 -- -- 47
2019-07-31 16:00:00 19 9 Sudoeste 24 Oeste 0 -- -- 50
2019-07-31 15:00:00 20.6 5 Sudoeste 20 Este 0 -- -- 43
2019-07-31 14:00:00 19.2 6 Sudeste 22 Sudeste 0 -- -- 49
2019-07-31 13:00:00 18.4 14 Este 24 Este 0 -- -- 57
2019-07-31 12:00:00 16.3 13 Este 22 Este 0 -- -- 56
2019-07-31 11:00:00 13.7 12 Este 17 Este 0 -- -- 63
2019-07-31 10:00:00 10.8 11 Este 14 Este 0 -- -- 77
2019-07-31 09:00:00 8.1 12 Este 16 Este 0 -- -- 96
2019-07-31 08:00:00 5.3 12 Este 15 Este 0 -- -- 98
2019-07-31 07:00:00 5.4 10 Este 12 Este 0 -- -- 96
2019-07-31 06:00:00 7.2 2 Sudoeste 6 Este 0 -- -- 95
2019-07-31 05:00:00 7.2 3 Sudeste 7 Nordeste 0 -- -- 98
2019-07-31 04:00:00 6.6 9 Este 12 Este 0 -- -- 97
2019-07-31 03:00:00 6.7 5 Este 7 Este 0 -- -- 97
2019-07-31 02:00:00 7.1 2 Este 14 Este 0 -- -- 97
2019-07-31 01:00:00 7.1 12 Este 14 Este 0 -- -- 96
2019-07-31 00:00:00 7.3 7 Este 10 Este 0 -- -- 95
2019-07-30 23:00:00 8.8 0 Calma 10 Este 0 -- -- 91
2019-07-30 22:00:00 9.1 12 Este 23 Este 0 -- -- 90
2019-07-30 21:00:00 10.5 17 Este 25 Este 0 -- -- 83
2019-07-30 20:00:00 14.2 5 Este 26 Este 0 -- -- 70
2019-07-30 19:00:00 15.5 10 Sudeste 31 Sudeste 0 -- -- 65
2019-07-30 18:00:00 17.6 8 Sur 30 Oeste 0 -- -- 50
2019-07-30 17:00:00 18.1 12 Oeste 26 Sudoeste 0 -- -- 45
2019-07-30 16:00:00 18.2 10 Sudoeste 28 Sudoeste 0 -- -- 44
2019-07-30 15:00:00 17.9 10 Sudoeste 24 Sudoeste 0 -- -- 46
2019-07-30 14:00:00 17.1 4 Oeste 22 Este 0 -- -- 49
2019-07-30 13:00:00 17.1 3 Noroeste 19 Sudoeste 0 -- -- 50
2019-07-30 12:00:00 13.5 6 Oeste 21 Oeste 0 -- -- 57
2019-07-30 11:00:00 11.6 7 Oeste 18 Oeste 0 -- -- 61
2019-07-30 10:00:00 9.6 7 Oeste 16 Oeste 0 -- -- 69
2019-07-30 09:00:00 7.4 8 Oeste 21 Oeste 0 -- -- 74
2019-07-30 08:00:00 5.4 15 Oeste 22 Oeste 0 -- -- 85
2019-07-30 07:00:00 5.8 15 Noroeste 19 Noroeste 0 -- -- 85
2019-07-30 06:00:00 6.4 14 Oeste 22 Oeste 0 -- -- 85
2019-07-30 05:00:00 6.6 19 Oeste 27 Noroeste 0 -- -- 95
2019-07-30 04:00:00 7.5 14 Oeste 20 Noroeste 0 -- -- 93
2019-07-30 03:00:00 8 14 Noroeste 19 Oeste 0 -- -- 94
2019-07-30 02:00:00 9 5 Oeste 11 Oeste 0 -- -- 94
2019-07-30 01:00:00 9 8 Oeste 14 Oeste 0 -- -- 95
2019-07-30 00:00:00 9.2 10 Oeste 14 Oeste 0 -- -- 91
2019-07-29 23:00:00 10.1 10 Noroeste 18 Noroeste 0 -- -- 87
2019-07-29 22:00:00 11.7 12 Oeste 34 Sudoeste 0 -- -- 73
2019-07-29 21:00:00 14.2 23 Oeste 38 Oeste 0 -- -- 50
2019-07-29 20:00:00 16.3 28 Oeste 49 Sudoeste 0 -- -- 46
2019-07-29 19:00:00 17.9 29 Oeste 53 Oeste 0 -- -- 42
2019-07-29 18:00:00 18.5 27 Oeste 51 Oeste 0 -- -- 44
2019-07-29 17:00:00 18.5 31 Oeste 53 Oeste 0 -- -- 43
2019-07-29 16:00:00 17.9 37 Oeste 59 Oeste 0 -- -- 39
2019-07-29 15:00:00 18 29 Oeste 53 Oeste 0 -- -- 50
2019-07-29 14:00:00 17.4 22 Oeste 49 Oeste 0 -- -- 57
2019-07-29 13:00:00 14.8 26 Oeste 49 Oeste 0 -- -- 69
2019-07-29 12:00:00 14.6 29 Oeste 45 Oeste 0 -- -- 70
2019-07-29 11:00:00 15.5 20 Oeste 31 Oeste 0 -- -- 64
2019-07-29 10:00:00 15.4 13 Oeste 23 Oeste 0 -- -- 57
2019-07-29 09:00:00 14.7 9 Oeste 15 Oeste 0 -- -- 56
2019-07-29 08:00:00 13.7 4 Sudoeste 8 Sudoeste 0 -- -- 59
2019-07-29 07:00:00 12.6 6 Sudoeste 9 Oeste 0 -- -- 66
2019-07-29 06:00:00 13.7 6 Oeste 11 Oeste 0 -- -- 56
2019-07-29 05:00:00 14.4 9 Noroeste 15 Noroeste 0 -- -- 49
2019-07-29 04:00:00 13.9 9 Noroeste 12 Noroeste 0 -- -- 50
2019-07-29 03:00:00 13.3 5 Norte 10 Norte 0 -- -- 48
2019-07-29 02:00:00 14 9 Noroeste 13 Noroeste 0 -- -- 49
2019-07-29 01:00:00 14.7 9 Noroeste 14 Noroeste 0 -- -- 49
2019-07-29 00:00:00 13.9 6 Noroeste 12 Noroeste 0 -- -- 58
2019-07-28 23:00:00 14.6 10 Oeste 18 Oeste 0 -- -- 59
2019-07-28 22:00:00 14.8 10 Oeste 24 Oeste 0 -- -- 58
2019-07-28 21:00:00 15.5 18 Oeste 29 Oeste 0 -- -- 59
2019-07-28 20:00:00 17 17 Oeste 32 Oeste 0 -- -- 53
2019-07-28 19:00:00 18.6 21 Oeste 33 Oeste 0 -- -- 48
2019-07-28 18:00:00 18.7 18 Oeste 33 Oeste 0 -- -- 51
2019-07-28 17:00:00 17.7 18 Oeste 35 Oeste 0 -- -- 56
2019-07-28 16:00:00 16.6 20 Oeste 36 Oeste 0 -- -- 55
2019-07-28 15:00:00 16.3 17 Oeste 33 Oeste 0 -- -- 59
2019-07-28 14:00:00 15.4 17 Oeste 27 Noroeste 0 -- -- 54
2019-07-28 13:00:00 14 15 Oeste 25 Oeste 0 -- -- 63
2019-07-28 12:00:00 13.2 13 Oeste 23 Oeste 0 -- -- 68
2019-07-28 11:00:00 11.8 10 Oeste 22 Oeste 0 -- -- 75
2019-07-28 10:00:00 12.3 5 Noroeste 9 Noroeste 0 -- -- 71
2019-07-28 09:00:00 12.1 2 Este 5 Este 0 -- -- 71
2019-07-28 08:00:00 8.6 4 Noroeste 9 Noroeste 0 -- -- 81
2019-07-28 07:00:00 6 5 Noroeste 10 Norte 0 -- -- 91
2019-07-28 06:00:00 6.3 6 Oeste 7 Oeste 0 -- -- 93
2019-07-28 05:00:00 6.4 2 Oeste 6 Oeste 0 -- -- 92
2019-07-28 04:00:00 6.2 4 Oeste 10 Oeste 0 -- -- 94
2019-07-28 03:00:00 6.6 9 Oeste 13 Oeste 0 -- -- 92
2019-07-28 02:00:00 7.3 9 Oeste 11 Oeste 0 -- -- 92
2019-07-28 01:00:00 7.1 3 Oeste 20 Noroeste 0 -- -- 94
2019-07-28 00:00:00 7.7 10 Norte 19 Noroeste 0 -- -- 92
2019-07-27 23:00:00 8.4 13 Oeste 20 Noroeste 0 -- -- 90
2019-07-26 12:00:00 -- -- -- -- -- -- -- -- --
2019-07-26 11:00:00 -- -- -- -- -- -- -- -- --
2019-07-26 10:00:00 11.9 7 Noroeste 25 Este 1.6 -- -- 96
2019-07-26 09:00:00 12.2 17 Este 28 Este 0 -- -- 97
2019-07-26 08:00:00 12.4 8 Sur 24 Este 0 -- -- 96
2019-07-26 07:00:00 11.9 8 Este 24 Este 0 -- -- 96
2019-07-26 06:00:00 12.6 8 Este 17 Este 0 -- -- 91
2019-07-26 05:00:00 13.5 7 Noroeste 21 Sudoeste 0 -- -- 82
2019-07-26 04:00:00 14.8 13 Sudoeste 20 Sudoeste 0 -- -- 70
2019-07-26 03:00:00 15.6 8 Sudoeste 15 Sudoeste 0 -- -- 63
2019-07-26 02:00:00 16.3 12 Oeste 57 Oeste 0.2 -- -- 58
2019-07-26 01:00:00 15.5 26 Oeste 49 Oeste 0 -- -- 63
2019-07-26 00:00:00 17.2 14 Oeste 31 Oeste 0 -- -- 58
2019-07-25 23:00:00 17.5 14 Oeste 36 Noroeste 0 -- -- 58
2019-07-25 22:00:00 18.6 22 Oeste 38 Oeste 0 -- -- 58
2019-07-25 21:00:00 20.5 22 Oeste 39 Oeste 0 -- -- 48
2019-07-25 20:00:00 22.5 29 Oeste 41 Oeste 0 -- -- 44
2019-07-25 19:00:00 23.7 23 Oeste 42 Oeste 0 -- -- 38
2019-07-25 18:00:00 25.9 26 Oeste 51 Oeste 0 -- -- 31
2019-07-25 17:00:00 25.6 34 Oeste 52 Oeste 0 -- -- 29
2019-07-25 16:00:00 25.2 27 Sudoeste 54 Oeste 0 -- -- 32
2019-07-25 15:00:00 23.9 30 Sudoeste 50 Sudoeste 0 -- -- 29
2019-07-25 14:00:00 23.6 23 Oeste 52 Oeste 0 -- -- 37
2019-07-25 13:00:00 22.3 24 Oeste 55 Sudoeste 0 -- -- 39
2019-07-25 12:00:00 22.4 29 Oeste 50 Oeste 0 -- -- 37
2019-07-25 11:00:00 22 24 Oeste 41 Oeste 0 -- -- 38
2019-07-25 10:00:00 20.9 18 Oeste 36 Oeste 0 -- -- 45
2019-07-25 09:00:00 20.5 12 Oeste 20 Oeste 0 -- -- 43
2019-07-25 08:00:00 18.8 10 Oeste 22 Noroeste 0 -- -- 49
2019-07-25 07:00:00 18 11 Oeste 18 Oeste 0 -- -- 54
2019-07-25 06:00:00 18.8 14 Oeste 20 Sudoeste 0 -- -- 52
2019-07-25 05:00:00 20.2 14 Sudoeste 23 Oeste 0 -- -- 45
2019-07-25 04:00:00 21.2 12 Oeste 19 Oeste 0 -- -- 41
2019-07-25 03:00:00 21.2 3 Noroeste 10 Noroeste 0 -- -- 42
2019-07-25 02:00:00 21.2 6 Oeste 15 Noroeste 0 -- -- 43
2019-07-25 01:00:00 22.1 8 Oeste 15 Oeste 0 -- -- 42
2019-07-25 00:00:00 22 8 Noroeste 15 Oeste 0 -- -- 41
2019-07-24 23:00:00 21.9 10 Oeste 20 Oeste 0 -- -- 44
2019-07-24 22:00:00 22 12 Oeste 23 Oeste 0 -- -- 45
2019-07-24 21:00:00 23.4 14 Oeste 40 Oeste 0 -- -- 45
2019-07-24 20:00:00 25 27 Oeste 47 Oeste 0 -- -- 40
2019-07-24 19:00:00 26.6 28 Oeste 50 Oeste 0 -- -- 37
2019-07-24 18:00:00 26.7 32 Sudoeste 55 Oeste 0 -- -- 33
2019-07-24 17:00:00 26.8 31 Oeste 64 Oeste 0 -- -- 36
2019-07-24 16:00:00 25.8 42 Oeste 61 Oeste 0 -- -- 36
2019-07-24 15:00:00 24.7 30 Oeste 59 Oeste 0 -- -- 42
2019-07-24 14:00:00 25.2 22 Oeste 39 Sudoeste 0 -- -- 43
2019-07-24 13:00:00 25 21 Oeste 33 Oeste 0 -- -- 44
2019-07-24 12:00:00 24.5 9 Sudoeste 17 Oeste 0 -- -- 49
2019-07-24 11:00:00 24 4 Sur 11 Este 0 -- -- 46
2019-07-24 10:00:00 21.7 4 Oeste 11 Norte 0 -- -- 46
2019-07-24 09:00:00 20.7 9 Norte 13 Noroeste 0 -- -- 49
2019-07-24 08:00:00 18.4 9 Oeste 23 Oeste 0 -- -- 52
2019-07-24 07:00:00 17.5 8 Oeste 23 Oeste 0 -- -- 54
2019-07-24 06:00:00 17.8 10 Oeste 19 Sudoeste 0 -- -- 51
2019-07-24 05:00:00 17.4 5 Oeste 12 Noroeste 0 -- -- 54
2019-07-24 04:00:00 17.4 3 Noroeste 15 Sudoeste 0 -- -- 58
2019-07-24 03:00:00 15.4 8 Oeste 19 Este 0 -- -- 72
2019-07-24 02:00:00 15.4 19 Este 28 Este 0 -- -- 75
2019-07-24 01:00:00 16.3 13 Sur 64 Sudoeste 0 -- -- 70
2019-07-24 00:00:00 16.8 6 Sudeste 21 Este 0 -- -- 67
2019-07-23 23:00:00 16.2 23 Este 44 Este 0 -- -- 77
2019-07-23 22:00:00 17.1 21 Sur 49 Noroeste 2.4 -- -- 67
2019-07-23 21:00:00 23.7 4 Noroeste 19 Sudoeste 0 -- -- 41
2019-07-23 20:00:00 25.7 14 Sudoeste 28 Sudoeste 0 -- -- 37
2019-07-23 19:00:00 26.8 18 Oeste 36 Oeste 0 -- -- 37
2019-07-23 18:00:00 27.2 12 Oeste 33 Noroeste 0 -- -- 39
2019-07-23 17:00:00 26.4 22 Oeste 40 Oeste 0 -- -- 39
2019-07-23 16:00:00 26 21 Oeste 47 Oeste 0 -- -- 40
2019-07-23 15:00:00 25.8 21 Oeste 58 Oeste 0 -- -- 42
2019-07-23 14:00:00 24.6 31 Oeste 53 Oeste 0 -- -- 43
2019-07-23 13:00:00 25.2 21 Sudoeste 41 Oeste 0 -- -- 40
2019-07-23 12:00:00 22.5 10 Oeste 18 Oeste 0 -- -- 52
2019-07-23 11:00:00 19.9 9 Noroeste 22 Oeste 0 -- -- 56
2019-07-23 10:00:00 18.8 15 Sudoeste 41 Sudoeste 0 -- -- 57
2019-07-23 09:00:00 18 18 Oeste 43 Sudoeste 0 -- -- 56
2019-07-23 08:00:00 18.7 9 Oeste 15 Oeste 0 -- -- 48
2019-07-23 07:00:00 20.1 2 Oeste 10 Oeste 0 -- -- 42
2019-07-23 06:00:00 19.3 2 Oeste 6 Oeste 0 -- -- 47
2019-07-23 05:00:00 18.8 3 Nordeste 12 Sudoeste 0 -- -- 50
2019-07-23 04:00:00 17.4 8 Norte 52 Sudoeste 0 -- -- 59
2019-07-23 03:00:00 20.5 29 Sudoeste 70 Oeste 0 -- -- 46
2019-07-23 02:00:00 18.7 17 Oeste 40 Oeste 0 -- -- 53
2019-07-23 01:00:00 16.6 16 Noroeste 30 Oeste 0 -- -- 61
2019-07-23 00:00:00 15.5 18 Oeste 27 Oeste 0 -- -- 77
2019-07-22 23:00:00 14.9 17 Oeste 26 Noroeste 0 -- -- 83
2019-07-22 22:00:00 14 17 Norte 78 Oeste 4.2 -- -- 92
2019-07-22 21:00:00 17.3 19 Sudeste 79 Sudoeste 9.8 -- -- 72
2019-07-22 20:00:00 24.1 32 Nordeste 43 Nordeste 0 -- -- 47
2019-07-22 19:00:00 28 5 Sudoeste 21 Sudoeste 0 -- -- 41
2019-07-22 18:00:00 29.1 13 Sudoeste 22 Sudoeste 0 -- -- 32
2019-07-22 17:00:00 28.5 14 Sudoeste 30 Sudoeste 0 -- -- 34
2019-07-22 16:00:00 29.7 21 Sudoeste 37 Sudoeste 0 -- -- 35
2019-07-22 15:00:00 29.5 14 Sudoeste 32 Sudoeste 0 -- -- 35
2019-07-22 14:00:00 28.7 10 Sudoeste 26 Oeste 0 -- -- 39
2019-07-22 13:00:00 26.7 13 Sudoeste 24 Sudoeste 0 -- -- 39
2019-07-22 12:00:00 27 4 Nordeste 12 Sudeste 0 -- -- 42
2019-07-22 11:00:00 24.9 6 Sur 12 Sur 0 -- -- 47
2019-07-22 10:00:00 22.1 6 Este 11 Este 0 -- -- 54
2019-07-22 09:00:00 20.6 4 Este 15 Este 0 -- -- 60
2019-07-22 08:00:00 17.3 9 Este 21 Sudeste 0 -- -- 71
2019-07-22 07:00:00 17.4 12 Sudeste 16 Este 0 -- -- 69
2019-07-22 06:00:00 18.2 9 Sudeste 24 Sudeste 0 -- -- 66
2019-07-22 05:00:00 19 6 Sudeste 18 Sudeste 0 -- -- 63
2019-07-22 04:00:00 18.7 6 Este 12 Este 0 -- -- 66
2019-07-22 03:00:00 17.5 9 Este 15 Este 0 -- -- 76
2019-07-22 02:00:00 17.4 13 Este 24 Este 0 -- -- 75
2019-07-22 01:00:00 16.7 19 Este 27 Este 0 -- -- 79
2019-07-22 00:00:00 16.6 16 Este 26 Este 0 -- -- 82
2019-07-21 23:00:00 17 19 Este 24 Este 0 -- -- 80
2019-07-21 22:00:00 18.3 18 Este 27 Este 0 -- -- 75
2019-07-21 21:00:00 18.9 20 Este 33 Este 0 -- -- 76
2019-07-21 20:00:00 20.9 27 Este 35 Este 0 -- -- 67
2019-07-21 19:00:00 27 6 Oeste 31 Sudoeste 0 -- -- 40
2019-07-21 18:00:00 26.5 19 Sudoeste 33 Sudoeste 0 -- -- 40
2019-07-21 17:00:00 26 18 Sudoeste 32 Oeste 0 -- -- 42
2019-07-21 16:00:00 26.9 11 Sudoeste 31 Oeste 0 -- -- 45
2019-07-21 15:00:00 26.2 19 Oeste 36 Oeste 0 -- -- 44
2019-07-21 14:00:00 26.4 9 Oeste 22 Oeste 0 -- -- 40
2019-07-21 13:00:00 23.5 5 Sudeste 13 Sudoeste 0 -- -- 51
2019-07-21 12:00:00 22.5 5 Sudeste 19 Sur 0 -- -- 58
2019-07-21 11:00:00 18.5 8 Este 13 Este 0 -- -- 69
2019-07-21 10:00:00 19.8 2 Sudeste 6 Sudeste 0 -- -- 60
2019-07-21 09:00:00 16.2 6 Este 12 Este 0 -- -- 69
2019-07-21 08:00:00 12.5 12 Este 13 Este 0 -- -- 89
2019-07-21 07:00:00 11.8 10 Este 19 Este 0 -- -- 97
2019-07-21 06:00:00 10.8 20 Este 23 Este 0 -- -- 97
2019-07-21 05:00:00 11.1 6 Este 16 Este 0 -- -- 95
2019-07-21 04:00:00 11.6 8 Este 12 Este 0 -- -- 96
2019-07-21 03:00:00 11.7 11 Este 18 Este 0 -- -- 96
2019-07-21 02:00:00 11.7 9 Este 17 Este 0 -- -- 95
2019-07-21 01:00:00 12.2 11 Este 22 Este 0 -- -- 94
2019-07-21 00:00:00 12.8 17 Este 20 Este 0 -- -- 91
2019-07-20 23:00:00 13.8 15 Nordeste 23 Nordeste 0 -- -- 90
2019-07-20 22:00:00 15.6 14 Este 26 Este 0 -- -- 85
2019-07-20 21:00:00 17.1 23 Nordeste 30 Nordeste 0 -- -- 80
2019-07-20 20:00:00 23 -- -- -- -- 0 -- -- 58
2019-07-20 19:00:00 26.3 14 Oeste 41 Oeste 0 -- -- 31
2019-07-20 18:00:00 26 21 Oeste 41 Oeste 0 -- -- 31
2019-07-20 17:00:00 26.4 23 Oeste 42 Oeste 0 -- -- 30
2019-07-20 16:00:00 26 23 Oeste 42 Oeste 0 -- -- 32
2019-07-20 15:00:00 26.1 17 Oeste 38 Oeste 0 -- -- 34
2019-07-20 14:00:00 24 21 Sudoeste 40 Oeste 0 -- -- 40
2019-07-20 13:00:00 23.5 14 Oeste 29 Oeste 0 -- -- 43
2019-07-20 12:00:00 22.6 12 Oeste 20 Oeste 0 -- -- 43
2019-07-20 11:00:00 22.3 4 Sudoeste 13 Este 0 -- -- 53
2019-07-20 10:00:00 19.9 4 Este 9 Sudeste 0 -- -- 57
2019-07-20 09:00:00 18.6 4 Este 8 Este 0 -- -- 57
2019-07-20 08:00:00 17 5 Este 8 Nordeste 0 -- -- 59
2019-07-20 07:00:00 15.8 5 Este 9 Nordeste 0 -- -- 62
2019-07-20 06:00:00 16.1 8 Este 9 Este 0 -- -- 62
2019-07-20 05:00:00 16.4 3 Este 8 Sudoeste 0 -- -- 62
2019-07-20 04:00:00 17.1 4 Sudoeste 6 Sur 0 -- -- 57
2019-07-20 03:00:00 16.9 0 Calma 7 Este 0 -- -- 66
2019-07-20 02:00:00 16 0 Calma 6 Oeste 0 -- -- 67
2019-07-20 01:00:00 16.5 3 Oeste 13 Noroeste 0 -- -- 70
2019-07-20 00:00:00 16.5 12 Oeste 22 Oeste 0 -- -- 71
2019-07-19 23:00:00 17.2 17 Oeste 25 Noroeste 0 -- -- 69
2019-07-19 22:00:00 21.3 14 Oeste 31 Oeste 0 -- -- 40
2019-07-19 21:00:00 22.4 16 Oeste 31 Oeste 0 -- -- 37
2019-07-19 20:00:00 24.1 18 Oeste 38 Oeste 0 -- -- 33
2019-07-19 19:00:00 26 21 Oeste 44 Oeste 0 -- -- 26
2019-07-19 18:00:00 25.6 26 Oeste 46 Oeste 0 -- -- 30
2019-07-19 17:00:00 25.1 29 Oeste 50 Oeste 0 -- -- 29
2019-07-19 16:00:00 25.3 25 Oeste 44 Noroeste 0 -- -- 33
2019-07-19 15:00:00 24.6 24 Oeste 45 Oeste 0 -- -- 35
2019-07-19 14:00:00 23.9 29 Oeste 47 Oeste 0 -- -- 36
2019-07-19 13:00:00 23.7 16 Oeste 27 Sudoeste 0 -- -- 39
2019-07-19 12:00:00 22.2 8 Oeste 18 Oeste 0 -- -- 43
2019-07-19 11:00:00 21.5 5 Sudoeste 9 Sudoeste 0 -- -- 44
2019-07-19 10:00:00 21.1 2 Oeste 5 Oeste 0 -- -- 42
2019-07-19 09:00:00 20.2 0 Calma 6 Noroeste 0 -- -- 47
2019-07-19 08:00:00 17.3 2 Noroeste 5 Sudoeste 0 -- -- 44
2019-07-19 07:00:00 14.6 2 Noroeste 13 Oeste 0 -- -- 54
2019-07-19 06:00:00 14.7 7 Noroeste 10 Noroeste 0 -- -- 50
2019-07-19 05:00:00 14.2 3 Sudoeste 4 Sudoeste 0 -- -- 74
2019-07-19 04:00:00 14.2 0 Calma 3 Nordeste 0 -- -- 64
2019-07-19 03:00:00 13.5 3 Nordeste 5 Este 0 -- -- 86
2019-07-19 02:00:00 14.2 0 Calma 4 Noroeste 0 -- -- 82
2019-07-19 01:00:00 14.6 0 Calma 4 Oeste 0 -- -- 75
2019-07-19 00:00:00 14.5 2 Noroeste 4 Noroeste 0 -- -- 77